Stations météo

Publicité
Embrun, France (7591): Température de l'air & dewpoint: 17.01.2017 01:00:00 - 23.01.2017 01:00:00 (CET)Embrun, France (7591): Température de l'air 5cm: 17.01.2017 01:00:00 - 23.01.2017 01:00:00 (CET)Embrun, France (7591): Température de l'air -20cm & Température de l'air -100cm: 17.01.2017 01:00:00 - 23.01.2017 01:00:00 (CET)Embrun, France (7591): Vitesse du vent & gusts: 17.01.2017 01:00:00 - 23.01.2017 01:00:00 (CET)Embrun, France (7591): Direction du vent: 17.01.2017 01:00:00 - 23.01.2017 01:00:00 (CET)Embrun, France (7591): visibility: 17.01.2017 01:00:00 - 23.01.2017 01:00:00 (CET)Embrun, France (7591): Ensoleillement: 17.01.2017 01:00:00 - 23.01.2017 01:00:00 (CET)Embrun, France (7591): Quantités de précipitations: 17.01.2017 01:00:00 - 23.01.2017 01:00:00 (CET)
Date & Time tt [°C] td [°C] tt 5cm [°C] tt -20cm [°C] tt -100cm [°C] ff [km/h] ff [knt] fx [km/h] fx [knt] dd vv [km] sd [min] rr [mm]
23.01.2017 01:00:00 4,9 -14,0 4,0 1,3 4,5 31 17 60 32 N 20 0 0,0
23.01.2017 00:00:00 5,2 -13,8 4,5 1,3 4,5 37 20 67 36 N 20 0 0,0
22.01.2017 23:00:00 6,3 -14,5 5,2 1,2 4,5 44 24 72 39 NNE 20 0 0,0
22.01.2017 22:00:00 5,9 -13,7 5,0 1,3 4,5 35 19 66 36 NNE 20 0 0,0
22.01.2017 21:00:00 5,9 -13,2 5,1 1,3 4,5 42 23 78 42 NNE 20 0 0,0
22.01.2017 20:00:00 5,9 -12,2 5,3 1,3 4,5 44 24 71 39 NNE 20 0 0,0
22.01.2017 19:00:00 6,4 -12,7 5,6 1,3 4,6 40 22 69 37 NNE 20 0 0,0
22.01.2017 18:00:00 6,4 -12,7 5,7 1,3 4,5 37 20 69 38 NNE 20 0 0,0
22.01.2017 17:00:00 7,0 -13,9 6,6 1,2 4,5 34 18 67 36 NNE 20 0 0,0
22.01.2017 16:00:00 7,7 -13,9 8,0 1,2 4,5 33 18 72 39 NE 20 23 0,0
22.01.2017 15:00:00 8,2 -14,8 8,5 1,3 4,5 31 17 69 37 NNE 20 31 0,0
22.01.2017 14:00:00 8,4 -16,0 9,7 1,3 4,5 32 17 65 35 NE 20 27 0,0
22.01.2017 13:00:00 9,1 -15,5 12,9 1,3 4,5 35 19 71 39 NE 20 60 0,0
22.01.2017 12:00:00 8,5 -15,2 10,3 1,2 4,5 32 18 95 51 NE 20 60 0,0
22.01.2017 11:00:00 7,3 -14,9 6,4 1,2 4,5 38 21 74 40 NE 20 23 0,0
22.01.2017 10:00:00 6,1 -14,6 5,3 1,2 4,5 36 20 76 41 NNE 20 20 0,0
22.01.2017 09:00:00 5,7 -14,4 4,5 1,3 4,6 35 19 68 37 NE 20 0 0,0
22.01.2017 08:00:00 5,5 -14,6 4,2 1,2 4,6 34 19 67 36 NE 20 0 0,0
22.01.2017 07:00:00 5,3 -14,2 4,0 1,3 4,6 32 17 58 31 NE 20 0 0,0
22.01.2017 06:00:00 5,4 -14,1 4,2 1,2 4,6 29 16 63 34 NNE 20 0 0,0
22.01.2017 05:00:00 5,5 -14,0 3,6 1,2 4,6 35 19 59 32 NNE 20 0 0,0
22.01.2017 04:00:00 5,0 -13,4 3,0 1,2 4,6 31 17 61 33 N 20 0 0,0
22.01.2017 03:00:00 5,0 -13,4 3,6 1,3 4,6 35 19 63 34 N 20 0 0,0
22.01.2017 02:00:00 4,7 -13,2 3,7 1,2 4,6 32 17 63 34 N 20 0 0,0
22.01.2017 01:00:00 5,2 -12,8 3,9 1,2 4,6 33 18 59 32 N 20 0 0,0
22.01.2017 00:00:00 6,1 -13,5 3,9 1,3 4,6 34 19 63 34 NNE 20 0 0,0
21.01.2017 23:00:00 5,4 -12,6 3,5 1,2 4,6 25 14 48 26 NNE 20 0 0,0
21.01.2017 22:00:00 5,4 -12,6 3,7 1,2 4,6 16 9 57 31 NNE 20 0 0,0
21.01.2017 21:00:00 5,5 -12,1 4,1 1,2 4,5 32 18 60 33 ENE 20 0 0,0
21.01.2017 20:00:00 5,9 -12,2 4,5 1,2 4,5 35 19 59 32 ENE 20 0 0,0
21.01.2017 19:00:00 6,2 -11,9 4,7 1,2 4,6 34 19 64 35 ENE 20 0 0,0
21.01.2017 18:00:00 6,5 -12,2 4,9 1,2 4,6 31 17 57 31 NE 20 6 0,0
21.01.2017 17:00:00 7,4 -11,9 6,3 1,2 4,6 29 16 61 33 NE 20 60 0,0
21.01.2017 16:00:00 8,6 -12,0 12,1 1,2 4,6 34 18 64 34 NE 20 60 0,0
21.01.2017 15:00:00 9,0 -11,6 13,4 1,2 4,6 32 17 63 34 NNE 20 60 0,0
21.01.2017 14:00:00 8,9 -11,7 13,5 1,3 4,6 34 18 66 36 NNE 20 60 0,0
21.01.2017 13:00:00 8,1 -11,3 13,0 1,2 4,6 34 19 74 40 NNE 20 60 0,0
21.01.2017 12:00:00 7,5 -10,8 9,4 1,2 4,6 35 19 63 34 NNE 20 60 0,0
21.01.2017 11:00:00 6,0 -9,9 6,1 1,2 4,6 35 19 61 33 N 20 60 0,0
21.01.2017 10:00:00 3,6 -10,1 1,2 1,2 4,6 37 20 65 35 N 20 36 0,0
21.01.2017 09:00:00 1,6 -10,3 0,8 1,2 4,6 41 22 62 34 N 20 0 0,0
21.01.2017 08:00:00 1,5 -10,0 0,5 1,2 4,6 40 21 64 35 N 20 0 0,0
21.01.2017 07:00:00 1,6 -10,0 0,8 1,2 4,6 40 22 62 33 N 20 0 0,0
21.01.2017 06:00:00 1,6 -10,0 0,6 1,2 4,6 40 21 66 36 N 20 0 0,0
21.01.2017 05:00:00 1,6 -10,0 0,7 1,2 4,6 39 21 63 34 N 20 0 0,0
21.01.2017 04:00:00 1,8 -9,8 0,9 1,2 4,6 38 20 64 34 N 20 0 0,0
21.01.2017 03:00:00 2,5 -9,8 1,7 1,2 4,6 35 19 59 32 N 20 0 0,0
21.01.2017 02:00:00 2,7 -9,9 1,8 1,3 4,7 32 17 58 32 N 20 0 0,0
21.01.2017 01:00:00 2,1 -9,8 1,6 1,2 4,6 38 20 64 35 N 20 0 0,0
21.01.2017 00:00:00 2,1 -9,8 1,5 1,2 4,6 37 20 66 36 N 20 0 0,0
20.01.2017 23:00:00 2,4 -9,9 1,8 1,2 4,6 41 22 63 34 N 20 0 0,0
20.01.2017 22:00:00 2,6 -9,7 1,7 1,2 4,6 34 19 56 30 N 20 0 0,0
20.01.2017 21:00:00 2,9 -9,4 1,8 1,2 4,6 25 13 46 25 N 20 0 0,0
20.01.2017 20:00:00 3,7 -10,0 2,7 1,2 4,6 26 14 47 25 N 20 0 0,0
20.01.2017 19:00:00 4,5 -10,0 3,6 1,2 4,7 29 16 53 29 NNE 20 0 0,0
20.01.2017 18:00:00 4,8 -10,1 3,3 1,2 4,6 23 12 41 22 NNE 20 3 0,0
20.01.2017 17:00:00 5,7 -10,1 4,7 1,3 4,7 23 12 52 28 NNE 20 60 0,0
20.01.2017 16:00:00 6,9 -9,5 9,1 1,2 4,6 29 16 54 29 NNE 20 60 0,0
20.01.2017 15:00:00 7,5 -9,4 7,2 1,2 4,6 28 15 54 29 NNE 20 24 0,0
20.01.2017 14:00:00 7,1 -10,2 8,8 1,2 4,7 26 14 52 28 NNE 20 56 0,0
20.01.2017 13:00:00 7,1 -10,2 11,9 1,2 4,6 35 19 69 37 NE 20 60 0,0
20.01.2017 12:00:00 6,7 -10,6 9,3 1,2 4,7 35 19 61 33 NNE 20 60 0,0
20.01.2017 11:00:00 5,5 -10,3 5,9 1,2 4,7 31 17 54 29 N 20 60 0,0
20.01.2017 10:00:00 3,2 -10,8 0,7 1,2 4,7 26 14 61 33 N 20 35 0,0
20.01.2017 09:00:00 1,2 -10,9 0,1 1,2 4,7 35 19 59 32 N 20 0 0,0
20.01.2017 08:00:00 1,0 -11,1 0,1 1,2 4,7 37 20 63 34 N 20 0 0,0
20.01.2017 07:00:00 1,1 -11,0 -0,2 1,2 4,6 37 20 59 32 N 20 0 0,0
20.01.2017 06:00:00 0,6 -10,9 -0,2 1,2 4,7 37 20 62 33 N 20 0 0,0
20.01.2017 05:00:00 1,0 -11,1 -0,1 1,2 4,7 35 19 62 33 N 20 0 0,0
20.01.2017 04:00:00 0,9 -10,9 0,0 1,2 4,7 36 20 63 34 N 20 0 0,0
20.01.2017 03:00:00 0,9 -10,9 0,1 1,2 4,7 35 19 59 32 N 20 0 0,0
20.01.2017 02:00:00 1,2 -10,6 0,2 1,2 4,7 33 18 61 33 N 20 0 0,0
20.01.2017 01:00:00 1,3 -10,5 0,5 1,2 4,7 38 21 61 33 N 20 0 0,0
20.01.2017 00:00:00 1,6 -10,6 0,8 1,2 4,7 36 19 58 32 N 20 0 0,0
19.01.2017 23:00:00 2,0 -10,5 1,0 1,2 4,7 31 17 54 29 N 20 0 0,0
19.01.2017 22:00:00 2,4 -10,5 1,4 1,2 4,7 34 18 52 28 N 20 0 0,0
19.01.2017 21:00:00 2,9 -10,4 1,9 1,2 4,7 29 16 48 26 N 20 0 0,0
19.01.2017 20:00:00 3,2 -10,5 2,1 1,2 4,7 26 14 41 22 N 20 0 0,0
19.01.2017 19:00:00 4,9 -10,8 3,4 1,2 4,7 18 10 41 22 NNE 20 0 0,0
19.01.2017 18:00:00 5,1 -10,7 3,8 1,2 4,7 19 10 45 25 NE 20 11 0,0
19.01.2017 17:00:00 5,8 -10,9 5,1 1,2 4,7 21 11 43 23 NE 20 0 0,0
19.01.2017 16:00:00 6,6 -11,1 5,8 1,2 4,7 21 11 58 31 NE 20 12 0,0
19.01.2017 15:00:00 6,7 -11,5 6,8 1,2 4,7 27 15 49 26 NE 20 32 0,0
19.01.2017 14:00:00 7,5 -11,8 11,6 1,2 4,7 24 13 64 34 ENE 20 60 0,0
19.01.2017 13:00:00 8,1 -11,3 13,5 1,2 4,7 25 14 62 33 NE 20 60 0,0
19.01.2017 12:00:00 6,9 -11,8 9,9 1,2 4,7 28 15 54 29 ENE 20 60 0,0
19.01.2017 11:00:00 6,5 -11,7 3,8 1,2 4,7 24 13 46 25 NNE 20 51 0,0
19.01.2017 10:00:00 3,1 -11,6 1,3 1,2 4,7 23 12 46 25 N 20 17 0,0
19.01.2017 09:00:00 2,0 -11,5 0,6 1,2 4,7 23 13 45 24 N 20 0 0,0
19.01.2017 08:00:00 1,9 -11,6 0,7 1,2 4,7 23 13 42 23 N 20 0 0,0
19.01.2017 07:00:00 2,5 -11,8 1,0 1,2 4,7 26 14 41 22 N 20 0 0,0
19.01.2017 06:00:00 3,1 -11,6 1,2 1,2 4,7 26 14 49 27 NNE 20 0 0,0
19.01.2017 05:00:00 2,8 -11,9 1,4 1,2 4,7 19 10 40 22 NNE 20 0 0,0
19.01.2017 04:00:00 3,5 -12,1 1,4 1,2 4,7 23 12 41 22 NNE 20 0 0,0
19.01.2017 03:00:00 2,8 -11,9 1,2 1,2 4,8 21 12 42 23 NNE 20 0 0,0
19.01.2017 02:00:00 2,3 -12,0 0,8 1,2 4,8 24 13 39 21 N 20 0 0,0
19.01.2017 01:00:00 1,9 -12,0 0,5 1,2 4,8 24 13 43 23 N 20 0 0,0
19.01.2017 00:00:00 1,6 -11,9 0,4 1,2 4,8 26 14 43 23 N 20 0 0,0
18.01.2017 23:00:00 1,5 -12,0 0,4 1,2 4,8 23 13 40 21 N 20 0 0,0
18.01.2017 22:00:00 2,1 -12,2 0,8 1,2 4,8 22 12 39 21 N 20 0 0,0
18.01.2017 21:00:00 2,7 -12,4 1,3 1,2 4,8 17 9 49 26 NNE 20 0 0,0
18.01.2017 20:00:00 3,8 -12,6 2,3 1,2 4,8 24 13 47 26 NE 20 0 0,0
18.01.2017 19:00:00 4,0 -12,5 2,4 1,2 4,8 23 13 49 26 NE 20 0 0,0
18.01.2017 18:00:00 4,2 -12,7 2,7 1,2 4,8 25 14 46 25 NE 20 15 0,0
18.01.2017 17:00:00 4,9 -13,0 3,9 1,2 4,8 26 14 51 27 NE 20 60 0,0
18.01.2017 16:00:00 5,9 -13,2 8,8 1,2 4,8 30 16 57 31 NNE 20 60 0,0
18.01.2017 15:00:00 6,4 -12,7 11,9 1,2 4,8 28 15 54 29 NE 20 60 0,0
18.01.2017 14:00:00 6,1 -13,5 11,9 1,2 4,8 33 18 59 32 NE 20 60 0,0
18.01.2017 13:00:00 6,5 -13,2 11,2 1,2 4,8 22 12 57 31 NNE 20 60 0,0
18.01.2017 12:00:00 5,5 -13,5 10,2 1,2 4,8 23 12 61 33 NE 20 60 0,0
18.01.2017 11:00:00 4,2 -13,6 2,1 1,2 4,8 31 17 60 32 NE 20 27 0,0
18.01.2017 10:00:00 2,5 -13,8 0,8 1,2 4,8 33 18 58 31 NE 20 9 0,0
18.01.2017 09:00:00 1,8 -13,6 0,4 1,2 4,8 27 14 55 30 NE 20 0 0,0
18.01.2017 08:00:00 1,4 -13,2 0,2 1,2 4,8 27 14 57 31 NNE 20 0 0,0
18.01.2017 07:00:00 1,3 -13,2 -0,4 1,2 4,8 32 17 61 33 NE 20 0 0,0
18.01.2017 06:00:00 1,0 -13,1 -0,4 1,2 4,8 26 14 63 34 NE 20 0 0,0
18.01.2017 05:00:00 0,9 -13,6 -0,5 1,2 4,8 26 14 53 29 NE 20 0 0,0
18.01.2017 04:00:00 1,0 -13,9 -0,4 1,2 4,8 29 16 51 28 NE 20 0 0,0
18.01.2017 03:00:00 1,0 -13,9 -0,3 1,2 4,8 26 14 54 29 NE 20 0 0,0
18.01.2017 02:00:00 1,2 -14,1 -0,3 1,2 4,8 29 16 59 32 NE 20 0 0,0
18.01.2017 01:00:00 1,1 -14,6 -0,3 1,2 4,8 31 17 66 36 NNE 20 0 0,0
18.01.2017 00:00:00 1,0 -15,5 -0,4 1,3 4,8 32 17 61 33 NNE 20 0 0,0
17.01.2017 23:00:00 0,7 -15,3 -0,4 1,3 4,8 30 16 68 37 NE 20 0 0,0
17.01.2017 22:00:00 1,1 -15,9 -0,3 1,3 4,9 37 20 74 40 NNE 20 0 0,0
17.01.2017 21:00:00 0,7 -15,3 -0,7 1,3 4,9 30 16 64 35 NNE 20 0 0,0
17.01.2017 20:00:00 0,6 -15,0 -0,8 1,3 4,8 29 16 64 35 NNE 20 0 0,0
17.01.2017 19:00:00 0,2 -15,4 -0,9 1,3 4,8 31 17 61 33 NE 20 0 0,0
17.01.2017 18:00:00 0,4 -15,6 -0,5 1,3 4,8 33 18 66 35 NNE 20 11 0,0
17.01.2017 17:00:00 1,2 -15,8 0,6 1,3 4,9 36 19 78 42 NNE 20 60 0,0
17.01.2017 16:00:00 1,8 -16,7 3,8 1,3 4,9 43 23 72 39 NNE 20 60 0,0
17.01.2017 15:00:00 2,4 -16,2 6,6 1,3 4,9 34 18 66 36 NNE 20 60 0,0
17.01.2017 14:00:00 2,4 -16,7 6,0 1,3 4,8 31 17 66 35 NE 20 60 0,0
17.01.2017 13:00:00 2,0 -17,0 2,8 1,3 4,9 33 18 76 41 NNE 20 52 0,0
17.01.2017 12:00:00 1,7 -16,8 3,6 1,3 4,8 29 16 58 31 NNE 20 55 0,0
17.01.2017 11:00:00 0,5 -17,3 -0,6 1,3 4,9 35 19 66 36 ENE 20 41 0,0
17.01.2017 10:00:00 -1,2 -17,9 -3,1 1,3 4,9 30 16 61 33 NE 20 8 0,0
17.01.2017 09:00:00 -2,4 -18,9 -3,7 1,3 4,9 28 15 62 34 NE 20 0 0,0
17.01.2017 08:00:00 -2,8 -19,7 -4,2 1,3 4,9 30 16 56 31 NE 20 0 0,0
17.01.2017 07:00:00 -3,1 -20,4 -4,4 1,3 4,9 27 14 61 33 NE 20 0 0,0
17.01.2017 06:00:00 -3,3 -21,0 -4,5 1,3 4,9 29 16 58 31 NE 20 0 0,0
17.01.2017 05:00:00 -3,4 -20,7 -5,0 1,4 4,9 36 20 58 31 NE 20 0 0,0
17.01.2017 04:00:00 -3,9 -20,6 -4,8 1,4 4,9 24 13 46 25 NNE 20 0 0,0
17.01.2017 03:00:00 -3,6 -20,4 -4,8 1,3 4,9 20 11 41 22 NNE 20 0 0,0
17.01.2017 02:00:00 -3,3 -20,6 -4,6 1,4 4,9 24 13 46 25 NE 20 0 0,0
17.01.2017 01:00:00 -3,2 -20,5 -4,4 1,4 4,9 20 11 47 26 NE 20 0 0,0

tt = Température de l'air
td = dewpoint
tt 5cm = Température de l'air 5cm
tt -20cm = Température de l'air -20cm
tt -100cm = Température de l'air -100cm
ff = Vitesse du vent
fx = gusts
dd = Direction du vent
vv = visibility
sd = Ensoleillement
rr = Quantités de précipitations

stations d'obs. à proximité